Aurora, South Dakota
Current Conditions -  °F | °C
As of 6:55 AM on Friday 31 Oct 2014 (Local Time) from KMDS Reporting Station
Clear Clear  
Wind Chill:   Ceiling: Unl
Heat Index: 18°   Visibility: 10mi
Dew Point: 18°   Wind: 8mph
Humidity: 100%   Direction: 350°N
Pressure: 30.55"   Gusts: NA
Location:  44.28°N, 96.69°W
Report Text: KMDS 311155Z AUTO 35007KT 10SM CLR M08/M08 A3055 RMK AO2
Loading
Personal Weather Stations






























Interactive Weather Map
Tropical Storm Tracking
New forecast layout! Learn more

10-Day Weather Forecast

Advertisements
Track Severe Weather on mobile